createdAt,value
2023-05-05T00:00:44.659Z,11.70
2023-05-05T00:05:50.212Z,11.60
2023-05-05T00:10:56.576Z,12.60
2023-05-05T00:16:01.466Z,11.50
2023-05-05T00:21:06.121Z,11.40
2023-05-05T00:26:09.846Z,11.40
2023-05-05T00:31:17.361Z,11.30
2023-05-05T00:36:20.960Z,11.30
2023-05-05T00:41:24.648Z,11.30
2023-05-05T00:46:32.596Z,11.20
2023-05-05T00:51:36.547Z,11.10
2023-05-05T00:56:40.592Z,11.10
2023-05-05T01:01:47.041Z,11.10
2023-05-05T01:07:08.253Z,11.10
2023-05-05T01:12:20.982Z,11.10
2023-05-05T01:17:38.822Z,11.00
2023-05-05T01:22:48.221Z,10.80
2023-05-05T01:28:02.497Z,10.70
2023-05-05T01:33:10.677Z,10.70
2023-05-05T01:38:18.394Z,9.50
2023-05-05T01:43:23.553Z,10.50
2023-05-05T01:48:29.915Z,9.80
2023-05-05T01:53:34.865Z,10.30
2023-05-05T01:58:40.071Z,10.20
2023-05-05T02:03:47.499Z,10.20
2023-05-05T02:08:53.338Z,10.10
2023-05-05T02:13:57.683Z,10.10
2023-05-05T02:19:05.620Z,10.10
2023-05-05T02:24:09.499Z,9.90
2023-05-05T02:29:19.103Z,9.80
2023-05-05T02:34:28.049Z,9.70
2023-05-05T02:39:37.849Z,9.80
2023-05-05T02:44:47.556Z,9.70
2023-05-05T02:49:53.407Z,9.70
2023-05-05T02:54:56.896Z,9.80
2023-05-05T03:00:09.676Z,9.90
2023-05-05T03:05:22.362Z,9.90
2023-05-05T03:10:31.181Z,9.80
2023-05-05T03:15:42.164Z,9.70
2023-05-05T03:20:47.558Z,9.70
2023-05-05T03:25:53.590Z,9.70
2023-05-05T03:31:13.544Z,9.70
2023-05-05T03:36:18.395Z,9.60
2023-05-05T03:41:23.747Z,9.60
2023-05-05T03:46:28.617Z,9.60
2023-05-05T03:51:33.948Z,9.60
2023-05-05T03:56:37.880Z,9.70
2023-05-05T04:01:41.575Z,9.70
2023-05-05T04:06:46.823Z,9.70
2023-05-05T04:11:51.188Z,9.70
2023-05-05T04:16:56.007Z,9.80
2023-05-05T04:22:02.610Z,9.80
2023-05-05T04:27:07.193Z,9.80
2023-05-05T04:32:11.099Z,10.70
2023-05-05T04:37:16.486Z,10.10
2023-05-05T04:42:20.590Z,10.60
2023-05-05T04:47:24.468Z,11.60
2023-05-05T04:52:29.415Z,12.50
2023-05-05T04:57:33.389Z,12.90
2023-05-05T05:02:37.938Z,12.00
2023-05-05T05:07:42.655Z,11.40
2023-05-05T05:12:45.857Z,11.00
2023-05-05T05:17:49.127Z,11.00
2023-05-05T05:22:53.725Z,10.90
2023-05-05T05:28:08.836Z,10.90
2023-05-05T05:33:16.118Z,10.90
2023-05-05T05:38:22.040Z,11.00
2023-05-05T05:43:28.262Z,11.20
2023-05-05T05:48:31.602Z,11.30
2023-05-05T05:53:37.063Z,11.40
2023-05-05T05:58:40.641Z,11.60
2023-05-05T06:03:44.677Z,11.80
2023-05-05T06:08:49.879Z,12.10
2023-05-05T06:13:53.499Z,12.30
2023-05-05T06:18:57.361Z,12.50
2023-05-05T06:24:02.655Z,12.70
2023-05-05T06:29:07.106Z,13.00
2023-05-05T06:34:10.897Z,13.20
2023-05-05T06:39:16.247Z,13.40
2023-05-05T06:44:19.807Z,13.70
2023-05-05T06:49:23.375Z,13.90
2023-05-05T06:54:28.309Z,14.20
2023-05-05T06:59:31.519Z,14.40
2023-05-05T07:04:34.793Z,14.60
2023-05-05T07:09:41.296Z,14.90
2023-05-05T07:14:44.904Z,15.20
2023-05-05T07:19:48.496Z,15.50
2023-05-05T07:24:53.939Z,15.80
2023-05-05T07:29:57.657Z,16.00
2023-05-05T07:35:01.357Z,16.30
2023-05-05T07:40:07.175Z,16.50
2023-05-05T07:45:11.091Z,17.00
2023-05-05T07:50:14.349Z,17.50
2023-05-05T07:55:19.563Z,17.70
2023-05-05T08:00:23.021Z,17.80
2023-05-05T08:05:26.725Z,18.00
2023-05-05T08:10:31.974Z,18.30
2023-05-05T08:15:35.358Z,18.70
2023-05-05T08:20:39.132Z,18.90
2023-05-05T08:25:44.750Z,19.10
2023-05-05T08:30:49.779Z,19.50
2023-05-05T08:35:53.720Z,19.90
2023-05-05T08:40:58.795Z,20.10
2023-05-05T08:46:02.249Z,20.50
2023-05-05T08:51:08.269Z,20.90
2023-05-05T08:56:16.039Z,21.20
2023-05-05T09:01:20.219Z,21.20
2023-05-05T09:06:27.105Z,21.30
2023-05-05T09:11:32.621Z,21.60
2023-05-05T09:16:36.163Z,22.20
2023-05-05T09:21:48.311Z,23.10
2023-05-05T09:26:57.385Z,23.40
2023-05-05T09:32:09.216Z,23.70
2023-05-05T09:37:12.950Z,23.80
2023-05-05T09:42:20.948Z,24.00
2023-05-05T09:47:35.979Z,24.30
2023-05-05T09:52:39.750Z,24.20
2023-05-05T09:57:45.019Z,24.10
2023-05-05T10:02:48.947Z,24.30
2023-05-05T10:07:52.549Z,24.80
2023-05-05T10:12:58.981Z,24.80
2023-05-05T10:18:07.540Z,24.70
2023-05-05T10:23:19.893Z,24.80
2023-05-05T10:28:33.873Z,24.90
2023-05-05T10:33:46.633Z,25.00
2023-05-05T10:38:55.364Z,24.90
2023-05-05T10:44:03.638Z,24.90
2023-05-05T10:49:17.142Z,24.80
2023-05-05T10:54:29.423Z,24.80
2023-05-05T10:59:44.466Z,24.80
2023-05-05T11:05:12.545Z,25.10
2023-05-05T11:10:17.522Z,25.30
2023-05-05T11:15:41.046Z,25.40
2023-05-05T11:21:04.340Z,25.10
2023-05-05T11:26:08.004Z,24.70
2023-05-05T11:31:22.050Z,24.50
2023-05-05T11:36:41.904Z,24.40
2023-05-05T11:42:10.174Z,24.30
2023-05-05T11:47:37.150Z,24.40
2023-05-05T11:52:40.752Z,24.30
2023-05-05T11:57:44.100Z,24.40
2023-05-05T12:02:57.179Z,24.60
2023-05-05T12:08:01.109Z,24.80
2023-05-05T12:13:04.963Z,25.00
2023-05-05T12:18:19.702Z,25.30
2023-05-05T12:23:23.625Z,25.50
2023-05-05T12:28:27.310Z,25.40
2023-05-05T12:33:39.888Z,25.80
2023-05-05T12:38:43.480Z,25.90
2023-05-05T12:43:47.851Z,26.20
2023-05-05T12:49:05.694Z,26.20
2023-05-05T12:54:10.805Z,26.40
2023-05-05T12:59:30.294Z,26.70
2023-05-05T13:04:35.661Z,27.10
2023-05-05T13:09:39.337Z,26.70
2023-05-05T13:14:43.794Z,26.30
2023-05-05T13:19:48.709Z,25.90
2023-05-05T13:24:53.086Z,25.70
2023-05-05T13:29:56.694Z,26.10
2023-05-05T13:35:01.717Z,26.20
2023-05-05T13:40:05.711Z,26.20
2023-05-05T13:45:10.533Z,26.10
2023-05-05T13:50:15.650Z,26.10
2023-05-05T13:55:19.609Z,26.00
2023-05-05T14:00:23.489Z,26.10
2023-05-05T14:05:28.731Z,26.20
2023-05-05T14:10:32.437Z,26.10
2023-05-05T14:15:36.132Z,25.90
2023-05-05T14:20:41.699Z,25.90
2023-05-05T14:25:45.638Z,26.00
2023-05-05T14:30:49.414Z,26.00
2023-05-05T14:35:54.417Z,26.00
2023-05-05T14:40:58.148Z,26.00
2023-05-05T14:46:06.935Z,25.90
2023-05-05T14:51:11.706Z,25.80
2023-05-05T14:56:15.121Z,25.60
2023-05-05T15:01:18.809Z,25.50
2023-05-05T15:06:23.935Z,25.30
2023-05-05T15:11:27.452Z,25.20
2023-05-05T15:16:33.782Z,25.00
2023-05-05T15:21:40.146Z,25.10
2023-05-05T15:26:43.834Z,25.00
2023-05-05T15:31:47.576Z,24.90
2023-05-05T15:36:52.825Z,24.60
2023-05-05T15:41:56.570Z,24.30
2023-05-05T15:47:00.288Z,24.10
2023-05-05T15:52:05.558Z,23.90
2023-05-05T15:57:09.502Z,23.80
2023-05-05T16:02:12.870Z,23.90
2023-05-05T16:07:18.686Z,23.90
2023-05-05T16:12:22.748Z,23.70
2023-05-05T16:17:26.469Z,23.60
2023-05-05T16:22:31.481Z,23.40
2023-05-05T16:27:35.071Z,23.20
2023-05-05T16:32:38.848Z,22.90
2023-05-05T16:37:43.564Z,22.70
2023-05-05T16:42:47.315Z,22.60
2023-05-05T16:47:51.734Z,22.50
2023-05-05T16:53:11.984Z,22.40
2023-05-05T16:58:16.803Z,22.30
2023-05-05T17:03:21.592Z,22.20
2023-05-05T17:08:25.332Z,22.10
2023-05-05T17:13:30.371Z,22.00
2023-05-05T17:18:33.831Z,21.80
2023-05-05T17:23:37.974Z,21.70
2023-05-05T17:28:43.051Z,21.60
2023-05-05T17:33:46.443Z,21.40
2023-05-05T17:38:50.044Z,21.30
2023-05-05T17:43:54.996Z,21.10
2023-05-05T17:48:58.374Z,21.10
2023-05-05T17:54:02.043Z,21.00
2023-05-05T17:59:06.980Z,20.90
2023-05-05T18:04:10.654Z,20.80
2023-05-05T18:09:14.474Z,20.70
2023-05-05T18:14:20.263Z,20.60
2023-05-05T18:19:24.372Z,20.50
2023-05-05T18:24:28.385Z,20.40
2023-05-05T18:29:35.091Z,20.20
2023-05-05T18:34:38.701Z,19.90
2023-05-05T18:39:44.048Z,19.60
2023-05-05T18:44:49.093Z,19.30
2023-05-05T18:49:52.731Z,19.00
2023-05-05T18:54:56.346Z,18.80
2023-05-05T19:00:01.551Z,18.70
2023-05-05T19:05:05.393Z,18.70
2023-05-05T19:10:10.497Z,18.60
2023-05-05T19:15:15.381Z,18.60
2023-05-05T19:20:19.164Z,18.70
2023-05-05T19:25:22.740Z,18.60
2023-05-05T19:30:27.960Z,18.50
2023-05-05T19:35:31.689Z,18.40
2023-05-05T19:40:35.330Z,18.40
2023-05-05T19:45:40.309Z,18.30
2023-05-05T19:50:44.051Z,18.10
2023-05-05T19:55:47.723Z,17.90
2023-05-05T20:00:54.084Z,17.70
2023-05-05T20:05:58.021Z,17.50
2023-05-05T20:11:01.633Z,17.50
2023-05-05T20:16:07.685Z,17.40
2023-05-05T20:21:11.059Z,17.10
2023-05-05T20:26:15.283Z,16.60
2023-05-05T20:31:20.390Z,16.20
2023-05-05T20:36:26.752Z,16.00
2023-05-05T20:41:30.625Z,15.80
2023-05-05T20:46:36.390Z,15.60
2023-05-05T20:51:40.113Z,15.40
2023-05-05T20:56:43.689Z,15.30
2023-05-05T21:01:48.610Z,15.30
2023-05-05T21:06:52.300Z,15.20
2023-05-05T21:11:55.833Z,15.20
2023-05-05T21:17:00.915Z,15.10
2023-05-05T21:22:04.955Z,15.00
2023-05-05T21:27:08.800Z,14.90
2023-05-05T21:32:14.504Z,14.80
2023-05-05T21:37:18.071Z,14.80
2023-05-05T21:42:21.747Z,14.80
2023-05-05T21:47:26.711Z,14.80
2023-05-05T21:52:30.452Z,14.80
2023-05-05T21:57:34.041Z,14.80
2023-05-05T22:02:39.310Z,14.90
2023-05-05T22:07:42.995Z,14.90
2023-05-05T22:12:46.617Z,14.90
2023-05-05T22:17:51.754Z,14.90
2023-05-05T22:22:55.616Z,14.90
2023-05-05T22:27:59.257Z,14.90
2023-05-05T22:33:04.326Z,14.90
2023-05-05T22:38:08.172Z,14.90
2023-05-05T22:43:11.366Z,14.80
2023-05-05T22:48:16.476Z,14.80
2023-05-05T22:53:19.667Z,14.80
2023-05-05T22:58:23.328Z,14.80
2023-05-05T23:03:28.362Z,14.80
2023-05-05T23:08:31.972Z,14.80
2023-05-05T23:13:35.696Z,14.70
2023-05-05T23:18:40.672Z,14.70
2023-05-05T23:23:44.380Z,14.50
2023-05-05T23:28:47.928Z,14.50
2023-05-05T23:33:52.958Z,14.50
2023-05-05T23:38:56.587Z,14.40
2023-05-05T23:44:00.254Z,14.30
2023-05-05T23:49:05.229Z,14.20
2023-05-05T23:54:08.958Z,14.20
2023-05-05T23:59:12.530Z,14.10
